Time,TemperatureF,DewpointF,PressureIn,WindDirection,WindDirectionDegrees,WindSpeedMPH,WindSpeedGustMPH,Humidity,HourlyPrecipIn,Conditions,Clouds,dailyrainin,SoftwareType,DateUTC
2016-07-26 00:04:00,61.4,53.0,29.90,WNW,294,0.0,0.0,74,0.00,,,0.00,Wunderground v.1.15,2016-07-26 07:04:00,
2016-07-26 00:09:00,60.9,52.6,29.90,WNW,292,0.0,1.0,74,0.00,,,0.00,Wunderground v.1.15,2016-07-26 07:09:00,
2016-07-26 00:14:00,60.4,52.8,29.90,SSE,153,1.0,1.0,76,0.00,,,0.00,Wunderground v.1.15,2016-07-26 07:14:00,
2016-07-26 00:19:00,60.0,52.8,29.90,SSE,153,1.0,1.0,77,0.00,,,0.00,Wunderground v.1.15,2016-07-26 07:19:00,
2016-07-26 00:24:00,59.7,52.5,29.90,SSE,153,0.0,0.0,77,0.00,,,0.00,Wunderground v.1.15,2016-07-26 07:24:00,
2016-07-26 00:29:00,59.3,52.4,29.90,SSE,160,0.0,1.0,78,0.00,,,0.00,Wunderground v.1.15,2016-07-26 07:29:00,
2016-07-26 00:39:00,58.8,52.3,29.90,SSE,161,1.0,2.0,79,0.00,,,0.00,Wunderground v.1.15,2016-07-26 07:39:00,
2016-07-26 00:44:00,58.8,52.6,29.89,SSE,161,1.0,1.0,80,0.00,,,0.00,Wunderground v.1.15,2016-07-26 07:44:00,
2016-07-26 00:49:00,58.7,52.2,29.89,SSE,161,0.0,1.0,79,0.00,,,0.00,Wunderground v.1.15,2016-07-26 07:49:00,
2016-07-26 00:54:00,58.6,52.4,29.89,SSE,161,0.0,0.0,80,0.00,,,0.00,Wunderground v.1.15,2016-07-26 07:54:00,
2016-07-26 00:59:00,58.3,52.2,29.89,SSE,161,0.0,0.0,80,0.00,,,0.00,Wunderground v.1.15,2016-07-26 07:59:00,
2016-07-26 01:04:00,58.1,52.0,29.89,SSE,161,0.0,0.0,80,0.00,,,0.00,Wunderground v.1.15,2016-07-26 08:04:00,
2016-07-26 01:14:00,57.6,51.8,29.89,SSE,161,1.0,2.0,81,0.00,,,0.00,Wunderground v.1.15,2016-07-26 08:14:00,
2016-07-26 01:19:00,57.3,51.5,29.89,SSE,161,1.0,2.0,81,0.00,,,0.00,Wunderground v.1.15,2016-07-26 08:19:00,
2016-07-26 01:24:00,57.1,51.7,29.89,SSE,161,1.0,1.0,82,0.00,,,0.00,Wunderground v.1.15,2016-07-26 08:24:00,
2016-07-26 01:29:00,56.9,51.8,29.89,SSE,161,0.0,1.0,83,0.00,,,0.00,Wunderground v.1.15,2016-07-26 08:29:00,
2016-07-26 01:39:00,56.6,51.5,29.89,SSE,161,0.0,0.0,83,0.00,,,0.00,Wunderground v.1.15,2016-07-26 08:39:00,
2016-07-26 01:49:00,56.1,51.3,29.89,SSE,161,0.0,0.0,84,0.00,,,0.00,Wunderground v.1.15,2016-07-26 08:49:00,
2016-07-26 01:54:00,56.1,51.7,29.89,SSE,161,0.0,0.0,85,0.00,,,0.00,Wunderground v.1.15,2016-07-26 08:54:00,
2016-07-26 01:59:00,56.0,51.6,29.89,SSE,161,0.0,0.0,85,0.00,,,0.00,Wunderground v.1.15,2016-07-26 08:59:00,
2016-07-26 02:04:00,56.2,52.1,29.89,SSE,160,0.0,0.0,86,0.00,,,0.00,Wunderground v.1.15,2016-07-26 09:04:00,
2016-07-26 02:09:00,56.6,52.1,29.89,SE,137,0.0,0.0,85,0.00,,,0.00,Wunderground v.1.15,2016-07-26 09:09:00,
2016-07-26 02:14:00,57.0,52.2,29.89,SE,137,0.0,1.0,84,0.00,,,0.00,Wunderground v.1.15,2016-07-26 09:14:00,
2016-07-26 02:24:00,57.5,52.0,29.89,SE,137,1.0,1.0,82,0.00,,,0.00,Wunderground v.1.15,2016-07-26 09:24:00,
2016-07-26 02:29:00,57.6,52.1,29.89,SE,137,2.0,2.0,82,0.00,,,0.00,Wunderground v.1.15,2016-07-26 09:29:00,
2016-07-26 02:34:00,57.9,52.4,29.89,SE,137,1.0,1.0,82,0.00,,,0.00,Wunderground v.1.15,2016-07-26 09:34:00,
2016-07-26 02:39:00,58.0,52.5,29.89,SE,137,0.0,1.0,82,0.00,,,0.00,Wunderground v.1.15,2016-07-26 09:39:00,
2016-07-26 02:49:00,58.3,52.5,29.89,SE,137,0.0,0.0,81,0.00,,,0.00,Wunderground v.1.15,2016-07-26 09:49:00,
2016-07-26 02:54:00,58.3,52.5,29.89,SE,137,0.0,0.0,81,0.00,,,0.00,Wunderground v.1.15,2016-07-26 09:54:00,
2016-07-26 03:04:00,58.1,52.3,29.89,SE,137,0.0,0.0,81,0.00,,,0.00,Wunderground v.1.15,2016-07-26 10:04:00,
2016-07-26 03:09:00,57.8,52.0,29.89,SE,137,0.0,0.0,81,0.00,,,0.00,Wunderground v.1.15,2016-07-26 10:09:00,
2016-07-26 03:14:00,57.4,51.9,29.89,SE,137,0.0,0.0,82,0.00,,,0.00,Wunderground v.1.15,2016-07-26 10:14:00,
2016-07-26 03:24:00,56.6,51.5,29.89,SE,137,0.0,0.0,83,0.00,,,0.00,Wunderground v.1.15,2016-07-26 10:24:00,
2016-07-26 03:29:00,56.5,51.7,29.89,SE,137,0.0,0.0,84,0.00,,,0.00,Wunderground v.1.15,2016-07-26 10:29:00,
2016-07-26 03:34:00,56.3,51.5,29.89,SE,137,0.0,0.0,84,0.00,,,0.00,Wunderground v.1.15,2016-07-26 10:34:00,
2016-07-26 03:44:00,56.6,52.1,29.89,SE,137,0.0,0.0,85,0.00,,,0.00,Wunderground v.1.15,2016-07-26 10:44:00,
2016-07-26 03:49:00,56.7,51.9,29.89,SE,137,0.0,0.0,84,0.00,,,0.00,Wunderground v.1.15,2016-07-26 10:49:00,
2016-07-26 03:54:00,56.8,52.0,29.89,ESE,117,0.0,1.0,84,0.00,,,0.00,Wunderground v.1.15,2016-07-26 10:54:00,
2016-07-26 03:59:00,56.8,51.7,29.89,East,98,1.0,3.0,83,0.00,,,0.00,Wunderground v.1.15,2016-07-26 10:59:00,
2016-07-26 04:09:00,57.6,52.1,29.89,East,93,2.0,2.0,82,0.00,,,0.00,Wunderground v.1.15,2016-07-26 11:09:00,
2016-07-26 04:14:00,58.2,52.4,29.89,East,92,2.0,2.0,81,0.00,,,0.00,Wunderground v.1.15,2016-07-26 11:14:00,
2016-07-26 04:19:00,58.6,52.4,29.89,East,92,2.0,2.0,80,0.00,,,0.00,Wunderground v.1.15,2016-07-26 11:19:00,
2016-07-26 04:24:00,58.8,52.3,29.89,East,92,2.0,2.0,79,0.00,,,0.00,Wunderground v.1.15,2016-07-26 11:24:00,
2016-07-26 04:29:00,59.3,52.8,29.89,East,91,2.0,2.0,79,0.00,,,0.00,Wunderground v.1.15,2016-07-26 11:29:00,
2016-07-26 04:34:00,59.5,52.6,29.89,East,90,2.0,2.0,78,0.00,,,0.00,Wunderground v.1.15,2016-07-26 11:34:00,
2016-07-26 04:39:00,59.8,52.6,29.89,East,90,2.0,2.0,77,0.00,,,0.00,Wunderground v.1.15,2016-07-26 11:39:00,
2016-07-26 04:44:00,60.3,52.7,29.89,East,90,1.0,1.0,76,0.00,,,0.00,Wunderground v.1.15,2016-07-26 11:44:00,
2016-07-26 04:49:00,60.7,53.1,29.89,East,90,0.0,1.0,76,0.00,,,0.00,Wunderground v.1.15,2016-07-26 11:49:00,
2016-07-26 04:54:00,60.5,52.9,29.89,East,90,0.0,0.0,76,0.00,,,0.00,Wunderground v.1.15,2016-07-26 11:54:00,
2016-07-26 04:59:00,60.0,52.8,29.89,East,90,0.0,0.0,77,0.00,,,0.00,Wunderground v.1.15,2016-07-26 11:59:00,
2016-07-26 05:04:00,59.9,53.0,29.89,East,90,0.0,0.0,78,0.00,,,0.00,Wunderground v.1.15,2016-07-26 12:04:00,
2016-07-26 05:09:00,60.1,53.2,29.88,East,90,0.0,0.0,78,0.00,,,0.00,Wunderground v.1.15,2016-07-26 12:09:00,